sensor_id;sensor_type;location;lat;lon;timestamp;pressure;altitude;pressure_sealevel;temperature;humidity
42727;BME280;28372;56.832;60.658;2023-03-18T00:00:29;97643.25;;;8.38;29.35
42727;BME280;28372;56.832;60.658;2023-03-18T00:02:58;97634.41;;;8.38;28.21
42727;BME280;28372;56.832;60.658;2023-03-18T00:05:26;97635.97;;;8.39;27.84
42727;BME280;28372;56.832;60.658;2023-03-18T00:07:53;97637.09;;;8.38;27.15
42727;BME280;28372;56.832;60.658;2023-03-18T00:10:20;97635.53;;;8.37;28.79
42727;BME280;28372;56.832;60.658;2023-03-18T00:12:48;97626.69;;;8.36;27.09
42727;BME280;28372;56.832;60.658;2023-03-18T00:15:15;97630.13;;;8.37;28.23
42727;BME280;28372;56.832;60.658;2023-03-18T00:17:44;97625.94;;;8.39;26.56
42727;BME280;28372;56.832;60.658;2023-03-18T00:20:12;97629.00;;;8.38;28.87
42727;BME280;28372;56.832;60.658;2023-03-18T00:22:40;97625.09;;;8.35;28.64
42727;BME280;28372;56.832;60.658;2023-03-18T00:25:08;97627.44;;;8.37;28.23
42727;BME280;28372;56.832;60.658;2023-03-18T00:27:36;97625.88;;;8.36;26.50
42727;BME280;28372;56.832;60.658;2023-03-18T00:30:04;97627.03;;;8.35;26.99
42727;BME280;28372;56.832;60.658;2023-03-18T00:32:32;97619.31;;;8.33;27.30
42727;BME280;28372;56.832;60.658;2023-03-18T00:35:00;97617.38;;;8.34;26.60
42727;BME280;28372;56.832;60.658;2023-03-18T00:37:28;97621.22;;;8.33;26.92
42727;BME280;28372;56.832;60.658;2023-03-18T00:39:58;97621.16;;;8.29;29.70
42727;BME280;28372;56.832;60.658;2023-03-18T00:42:35;97621.16;;;8.29;29.24
42727;BME280;28372;56.832;60.658;2023-03-18T00:45:05;97612.19;;;8.21;30.98
42727;BME280;28372;56.832;60.658;2023-03-18T00:47:33;97605.22;;;8.20;31.02
42727;BME280;28372;56.832;60.658;2023-03-18T00:50:02;97600.56;;;8.17;30.81
42727;BME280;28372;56.832;60.658;2023-03-18T00:52:29;97593.94;;;8.11;32.00
42727;BME280;28372;56.832;60.658;2023-03-18T00:54:58;97601.69;;;8.16;28.71
42727;BME280;28372;56.832;60.658;2023-03-18T00:57:28;97604.38;;;8.16;28.47
42727;BME280;28372;56.832;60.658;2023-03-18T00:59:56;97596.63;;;8.11;31.73
42727;BME280;28372;56.832;60.658;2023-03-18T01:02:26;97610.50;;;8.13;31.92
42727;BME280;28372;56.832;60.658;2023-03-18T01:04:54;97614.34;;;8.12;30.55
42727;BME280;28372;56.832;60.658;2023-03-18T01:07:23;97620.91;;;8.15;31.07
42727;BME280;28372;56.832;60.658;2023-03-18T01:09:50;97615.97;;;8.17;31.36
42727;BME280;28372;56.832;60.658;2023-03-18T01:12:18;97614.84;;;8.18;31.11
42727;BME280;28372;56.832;60.658;2023-03-18T01:14:45;97618.53;;;8.10;32.84
42727;BME280;28372;56.832;60.658;2023-03-18T01:17:12;97613.88;;;8.06;33.19
42727;BME280;28372;56.832;60.658;2023-03-18T01:19:40;97616.13;;;8.04;33.40
42727;BME280;28372;56.832;60.658;2023-03-18T01:22:08;97621.81;;;7.99;33.39
42727;BME280;28372;56.832;60.658;2023-03-18T01:24:42;97619.19;;;8.03;32.53
42727;BME280;28372;56.832;60.658;2023-03-18T01:27:10;97610.78;;;7.85;34.23
42727;BME280;28372;56.832;60.658;2023-03-18T01:29:39;97617.88;;;7.93;34.08
42727;BME280;28372;56.832;60.658;2023-03-18T01:32:13;97623.72;;;7.99;33.60
42727;BME280;28372;56.832;60.658;2023-03-18T01:34:41;97614.94;;;8.02;32.94
42727;BME280;28372;56.832;60.658;2023-03-18T01:37:08;97621.97;;;8.06;33.23
42727;BME280;28372;56.832;60.658;2023-03-18T01:39:38;97625.69;;;8.02;33.33
42727;BME280;28372;56.832;60.658;2023-03-18T01:42:13;97629.03;;;7.95;34.44
42727;BME280;28372;56.832;60.658;2023-03-18T01:44:40;97632.22;;;8.01;32.70
42727;BME280;28372;56.832;60.658;2023-03-18T01:47:08;97638.53;;;8.09;32.73
42727;BME280;28372;56.832;60.658;2023-03-18T01:49:40;97640.97;;;8.17;30.74
42727;BME280;28372;56.832;60.658;2023-03-18T01:52:10;97637.22;;;8.22;32.44
42727;BME280;28372;56.832;60.658;2023-03-18T01:54:40;97639.91;;;8.22;33.74
42727;BME280;28372;56.832;60.658;2023-03-18T01:57:09;97637.41;;;8.10;34.31
42727;BME280;28372;56.832;60.658;2023-03-18T01:59:39;97633.25;;;8.16;33.52
42727;BME280;28372;56.832;60.658;2023-03-18T02:02:09;97646.78;;;8.19;33.56
42727;BME280;28372;56.832;60.658;2023-03-18T02:04:46;97636.72;;;8.16;33.70
42727;BME280;28372;56.832;60.658;2023-03-18T02:07:22;97643.78;;;8.24;32.86
42727;BME280;28372;56.832;60.658;2023-03-18T02:09:51;97650.38;;;8.27;33.00
42727;BME280;28372;56.832;60.658;2023-03-18T02:12:24;97642.03;;;8.36;30.61
42727;BME280;28372;56.832;60.658;2023-03-18T02:14:56;97661.63;;;8.33;33.51
42727;BME280;28372;56.832;60.658;2023-03-18T02:17:45;97661.03;;;8.20;34.36
42727;BME280;28372;56.832;60.658;2023-03-18T02:23:04;97656.66;;;8.12;32.93
42727;BME280;28372;56.832;60.658;2023-03-18T02:25:35;97661.84;;;8.01;35.04
42727;BME280;28372;56.832;60.658;2023-03-18T02:28:09;97662.47;;;7.71;35.90
42727;BME280;28372;56.832;60.658;2023-03-18T02:30:42;97668.47;;;7.84;35.95
42727;BME280;28372;56.832;60.658;2023-03-18T02:33:13;97662.38;;;7.87;35.88
42727;BME280;28372;56.832;60.658;2023-03-18T02:35:43;97675.25;;;7.97;36.08
42727;BME280;28372;56.832;60.658;2023-03-18T02:38:13;97673.94;;;8.11;36.10
42727;BME280;28372;56.832;60.658;2023-03-18T02:40:40;97678.53;;;8.30;35.86
42727;BME280;28372;56.832;60.658;2023-03-18T02:48:40;97678.00;;;8.67;35.31
42727;BME280;28372;56.832;60.658;2023-03-18T02:51:09;97687.09;;;8.82;34.17
42727;BME280;28372;56.832;60.658;2023-03-18T02:53:37;97686.00;;;8.86;34.87
42727;BME280;28372;56.832;60.658;2023-03-18T02:56:05;97690.44;;;8.98;34.51
42727;BME280;28372;56.832;60.658;2023-03-18T02:58:33;97694.34;;;9.04;34.32
42727;BME280;28372;56.832;60.658;2023-03-18T03:01:03;97699.09;;;9.11;33.63
42727;BME280;28372;56.832;60.658;2023-03-18T03:03:30;97691.44;;;9.17;33.00
42727;BME280;28372;56.832;60.658;2023-03-18T03:05:59;97698.31;;;9.11;34.57
42727;BME280;28372;56.832;60.658;2023-03-18T03:08:27;97705.31;;;9.15;34.24
42727;BME280;28372;56.832;60.658;2023-03-18T03:10:55;97694.91;;;9.17;34.14
42727;BME280;28372;56.832;60.658;2023-03-18T03:13:23;97703.06;;;9.21;33.11
42727;BME280;28372;56.832;60.658;2023-03-18T03:15:52;97698.41;;;9.18;34.13
42727;BME280;28372;56.832;60.658;2023-03-18T03:18:20;97694.13;;;9.13;34.52
42727;BME280;28372;56.832;60.658;2023-03-18T03:20:49;97696.81;;;9.13;34.92
42727;BME280;28372;56.832;60.658;2023-03-18T03:23:19;97703.34;;;9.12;34.82
42727;BME280;28372;56.832;60.658;2023-03-18T03:25:47;97711.53;;;9.19;33.02
42727;BME280;28372;56.832;60.658;2023-03-18T03:28:15;97713.50;;;9.22;34.35
42727;BME280;28372;56.832;60.658;2023-03-18T03:30:43;97718.16;;;9.25;34.24
42727;BME280;28372;56.832;60.658;2023-03-18T03:33:11;97715.47;;;9.25;34.36
42727;BME280;28372;56.832;60.658;2023-03-18T03:35:39;97710.91;;;9.30;34.21
42727;BME280;28372;56.832;60.658;2023-03-18T03:38:08;97714.44;;;9.34;33.94
42727;BME280;28372;56.832;60.658;2023-03-18T03:40:36;97703.25;;;9.35;34.61
42727;BME280;28372;56.832;60.658;2023-03-18T03:43:04;97699.25;;;9.22;35.06
42727;BME280;28372;56.832;60.658;2023-03-18T03:45:32;97710.44;;;9.24;34.83
42727;BME280;28372;56.832;60.658;2023-03-18T03:48:00;97724.31;;;9.22;34.93
42727;BME280;28372;56.832;60.658;2023-03-18T03:50:28;97720.09;;;9.25;34.90
42727;BME280;28372;56.832;60.658;2023-03-18T03:52:56;97726.16;;;9.18;35.27
42727;BME280;28372;56.832;60.658;2023-03-18T03:55:25;97737.22;;;9.09;35.84
42727;BME280;28372;56.832;60.658;2023-03-18T03:57:54;97733.44;;;9.14;35.22
42727;BME280;28372;56.832;60.658;2023-03-18T04:00:24;97735.09;;;9.22;33.10
42727;BME280;28372;56.832;60.658;2023-03-18T04:02:52;97737.03;;;9.22;35.81
42727;BME280;28372;56.832;60.658;2023-03-18T04:05:22;97742.34;;;9.18;35.04
42727;BME280;28372;56.832;60.658;2023-03-18T04:07:50;97756.66;;;9.19;35.76
42727;BME280;28372;56.832;60.658;2023-03-18T04:10:26;97756.97;;;9.17;36.01
42727;BME280;28372;56.832;60.658;2023-03-18T04:12:54;97763.19;;;9.18;36.22
42727;BME280;28372;56.832;60.658;2023-03-18T04:15:21;97761.69;;;9.20;35.89
42727;BME280;28372;56.832;60.658;2023-03-18T04:17:51;97768.31;;;9.26;36.33
42727;BME280;28372;56.832;60.658;2023-03-18T04:20:19;97771.47;;;9.32;36.31
42727;BME280;28372;56.832;60.658;2023-03-18T04:22:47;97779.22;;;9.34;35.62
42727;BME280;28372;56.832;60.658;2023-03-18T04:25:17;97773.03;;;9.33;36.06
42727;BME280;28372;56.832;60.658;2023-03-18T04:27:48;97777.59;;;9.29;36.65
42727;BME280;28372;56.832;60.658;2023-03-18T04:30:19;97784.19;;;9.32;35.56
42727;BME280;28372;56.832;60.658;2023-03-18T04:32:56;97780.41;;;9.36;34.13
42727;BME280;28372;56.832;60.658;2023-03-18T04:35:26;97788.09;;;9.34;36.33
42727;BME280;28372;56.832;60.658;2023-03-18T04:37:54;97800.53;;;9.42;35.54
42727;BME280;28372;56.832;60.658;2023-03-18T04:40:22;97801.72;;;9.45;35.51
42727;BME280;28372;56.832;60.658;2023-03-18T04:42:50;97808.34;;;9.48;33.74
42727;BME280;28372;56.832;60.658;2023-03-18T04:45:22;97817.69;;;9.54;31.86
42727;BME280;28372;56.832;60.658;2023-03-18T04:47:50;97831.88;;;9.47;35.00
42727;BME280;28372;56.832;60.658;2023-03-18T04:50:19;97821.53;;;9.53;35.41
42727;BME280;28372;56.832;60.658;2023-03-18T04:52:47;97831.91;;;9.51;35.34
42727;BME280;28372;56.832;60.658;2023-03-18T04:55:17;97837.19;;;9.43;37.80
42727;BME280;28372;56.832;60.658;2023-03-18T04:57:48;97842.59;;;9.43;34.48
42727;BME280;28372;56.832;60.658;2023-03-18T05:00:19;97834.09;;;9.41;37.81
42727;BME280;28372;56.832;60.658;2023-03-18T05:02:53;97849.94;;;9.43;37.04
42727;BME280;28372;56.832;60.658;2023-03-18T05:05:23;97846.38;;;9.39;40.37
42727;BME280;28372;56.832;60.658;2023-03-18T05:07:51;97849.84;;;9.39;40.13
42727;BME280;28372;56.832;60.658;2023-03-18T05:10:20;97858.63;;;9.33;41.07
42727;BME280;28372;56.832;60.658;2023-03-18T05:12:48;97854.84;;;9.37;41.37
42727;BME280;28372;56.832;60.658;2023-03-18T05:15:23;97860.25;;;9.37;39.45
42727;BME280;28372;56.832;60.658;2023-03-18T05:17:53;97865.22;;;9.35;41.84
42727;BME280;28372;56.832;60.658;2023-03-18T05:20:21;97873.69;;;9.34;40.66
42727;BME280;28372;56.832;60.658;2023-03-18T05:22:49;97873.31;;;9.35;40.38
42727;BME280;28372;56.832;60.658;2023-03-18T05:25:29;97886.81;;;9.35;41.38
42727;BME280;28372;56.832;60.658;2023-03-18T05:27:57;97894.06;;;9.31;41.56
42727;BME280;28372;56.832;60.658;2023-03-18T05:30:35;97889.41;;;9.28;41.31
42727;BME280;28372;56.832;60.658;2023-03-18T05:33:07;97897.13;;;9.30;42.35
42727;BME280;28372;56.832;60.658;2023-03-18T05:35:47;97903.31;;;9.30;42.58
42727;BME280;28372;56.832;60.658;2023-03-18T05:38:17;97901.50;;;9.38;42.17
42727;BME280;28372;56.832;60.658;2023-03-18T05:40:44;97906.91;;;9.38;43.84
42727;BME280;28372;56.832;60.658;2023-03-18T05:43:23;97911.59;;;9.41;47.08
42727;BME280;28372;56.832;60.658;2023-03-18T05:45:54;97917.47;;;9.47;44.06
42727;BME280;28372;56.832;60.658;2023-03-18T05:48:33;97913.69;;;9.51;47.67
42727;BME280;28372;56.832;60.658;2023-03-18T05:51:03;97921.84;;;9.55;44.17
42727;BME280;28372;56.832;60.658;2023-03-18T05:53:34;97929.22;;;9.58;49.67
42727;BME280;28372;56.832;60.658;2023-03-18T05:56:14;97925.44;;;9.63;52.42
42727;BME280;28372;56.832;60.658;2023-03-18T05:58:44;97926.66;;;9.65;52.30
42727;BME280;28372;56.832;60.658;2023-03-18T06:01:21;97923.22;;;9.68;52.22
42727;BME280;28372;56.832;60.658;2023-03-18T06:03:48;97931.00;;;9.73;55.03
42727;BME280;28372;56.832;60.658;2023-03-18T06:06:17;97936.56;;;9.84;56.17
42727;BME280;28372;56.832;60.658;2023-03-18T06:08:44;97942.91;;;9.95;53.24
42727;BME280;28372;56.832;60.658;2023-03-18T06:11:12;97938.81;;;10.05;49.67
42727;BME280;28372;56.832;60.658;2023-03-18T06:13:40;97942.44;;;10.17;47.56
42727;BME280;28372;56.832;60.658;2023-03-18T06:16:08;97946.88;;;10.28;46.59
42727;BME280;28372;56.832;60.658;2023-03-18T06:18:36;97948.47;;;10.33;46.67
42727;BME280;28372;56.832;60.658;2023-03-18T06:21:03;97955.88;;;10.36;47.51
42727;BME280;28372;56.832;60.658;2023-03-18T06:23:33;97961.72;;;10.38;47.92
42727;BME280;28372;56.832;60.658;2023-03-18T06:26:01;97969.09;;;10.41;48.32
42727;BME280;28372;56.832;60.658;2023-03-18T06:28:34;97976.81;;;10.43;48.83
42727;BME280;28372;56.832;60.658;2023-03-18T06:31:07;97975.25;;;10.42;49.77
42727;BME280;28372;56.832;60.658;2023-03-18T06:33:34;97971.78;;;10.41;48.43
42727;BME280;28372;56.832;60.658;2023-03-18T06:36:02;97984.09;;;10.39;49.81
42727;BME280;28372;56.832;60.658;2023-03-18T06:38:30;97989.78;;;10.34;50.84
42727;BME280;28372;56.832;60.658;2023-03-18T06:40:58;97999.81;;;10.29;51.26
42727;BME280;28372;56.832;60.658;2023-03-18T06:43:26;98003.63;;;10.28;50.51
42727;BME280;28372;56.832;60.658;2023-03-18T06:45:54;98010.91;;;10.24;49.73
42727;BME280;28372;56.832;60.658;2023-03-18T06:48:21;98009.25;;;10.16;52.50
42727;BME280;28372;56.832;60.658;2023-03-18T06:50:49;98024.31;;;10.17;43.07
42727;BME280;28372;56.832;60.658;2023-03-18T06:53:21;98035.84;;;10.14;47.12
42727;BME280;28372;56.832;60.658;2023-03-18T06:55:49;98052.63;;;10.00;53.43
42727;BME280;28372;56.832;60.658;2023-03-18T06:58:20;98063.13;;;9.82;53.08
42727;BME280;28372;56.832;60.658;2023-03-18T07:01:02;98079.84;;;9.68;56.09
42727;BME280;28372;56.832;60.658;2023-03-18T07:03:35;98082.31;;;9.54;58.42
42727;BME280;28372;56.832;60.658;2023-03-18T07:06:04;98092.16;;;9.46;55.45
42727;BME280;28372;56.832;60.658;2023-03-18T07:08:32;98094.59;;;9.51;54.83
42727;BME280;28372;56.832;60.658;2023-03-18T07:11:00;98102.97;;;9.46;55.36
42727;BME280;28372;56.832;60.658;2023-03-18T07:13:28;98126.69;;;9.37;52.32
42727;BME280;28372;56.832;60.658;2023-03-18T07:15:56;98124.06;;;9.40;53.83
42727;BME280;28372;56.832;60.658;2023-03-18T07:18:25;98125.34;;;9.47;52.68
42727;BME280;28372;56.832;60.658;2023-03-18T07:20:53;98133.78;;;9.45;49.70
42727;BME280;28372;56.832;60.658;2023-03-18T07:23:22;98147.09;;;9.54;50.82
42727;BME280;28372;56.832;60.658;2023-03-18T07:25:49;98140.69;;;9.42;50.85
42727;BME280;28372;56.832;60.658;2023-03-18T07:28:18;98160.75;;;9.41;50.18
42727;BME280;28372;56.832;60.658;2023-03-18T07:30:46;98175.59;;;9.51;48.51
42727;BME280;28372;56.832;60.658;2023-03-18T07:33:13;98166.63;;;9.47;49.63
42727;BME280;28372;56.832;60.658;2023-03-18T07:35:41;98186.41;;;9.51;46.72
42727;BME280;28372;56.832;60.658;2023-03-18T07:38:09;98194.56;;;9.55;46.73
42727;BME280;28372;56.832;60.658;2023-03-18T07:40:37;98185.47;;;9.63;47.66
42727;BME280;28372;56.832;60.658;2023-03-18T07:43:04;98196.03;;;9.72;45.44
42727;BME280;28372;56.832;60.658;2023-03-18T07:45:32;98203.38;;;9.71;43.63
42727;BME280;28372;56.832;60.658;2023-03-18T07:48:00;98218.88;;;9.74;42.43
42727;BME280;28372;56.832;60.658;2023-03-18T07:50:27;98221.66;;;9.78;42.89
42727;BME280;28372;56.832;60.658;2023-03-18T07:52:55;98222.91;;;9.84;42.12
42727;BME280;28372;56.832;60.658;2023-03-18T07:55:22;98229.25;;;9.92;42.20
42727;BME280;28372;56.832;60.658;2023-03-18T07:57:50;98234.66;;;9.92;40.70
42727;BME280;28372;56.832;60.658;2023-03-18T08:00:17;98230.13;;;9.96;41.44
42727;BME280;28372;56.832;60.658;2023-03-18T08:02:45;98249.72;;;9.93;39.99
42727;BME280;28372;56.832;60.658;2023-03-18T08:05:12;98244.75;;;9.95;38.77
42727;BME280;28372;56.832;60.658;2023-03-18T08:07:40;98254.34;;;9.92;39.01
42727;BME280;28372;56.832;60.658;2023-03-18T08:10:08;98247.38;;;9.72;37.96
42727;BME280;28372;56.832;60.658;2023-03-18T08:12:36;98258.25;;;9.75;38.96
42727;BME280;28372;56.832;60.658;2023-03-18T08:15:18;98263.22;;;9.73;37.76
42727;BME280;28372;56.832;60.658;2023-03-18T08:17:45;98275.53;;;9.71;38.30
42727;BME280;28372;56.832;60.658;2023-03-18T08:20:13;98272.25;;;9.62;38.02
42727;BME280;28372;56.832;60.658;2023-03-18T08:22:41;98266.06;;;9.61;38.47
42727;BME280;28372;56.832;60.658;2023-03-18T08:25:08;98272.34;;;9.65;38.04
42727;BME280;28372;56.832;60.658;2023-03-18T08:27:37;98276.94;;;9.65;37.12
42727;BME280;28372;56.832;60.658;2023-03-18T08:30:04;98290.16;;;9.70;37.16
42727;BME280;28372;56.832;60.658;2023-03-18T08:32:33;98295.63;;;9.73;36.63
42727;BME280;28372;56.832;60.658;2023-03-18T08:35:00;98298.41;;;9.77;36.93
42727;BME280;28372;56.832;60.658;2023-03-18T08:37:28;98312.06;;;9.84;36.62
42727;BME280;28372;56.832;60.658;2023-03-18T08:39:55;98313.66;;;9.85;36.16
42727;BME280;28372;56.832;60.658;2023-03-18T08:42:23;98312.16;;;9.88;36.08
42727;BME280;28372;56.832;60.658;2023-03-18T08:44:50;98322.84;;;10.00;35.66
42727;BME280;28372;56.832;60.658;2023-03-18T08:47:17;98333.44;;;10.09;35.41
42727;BME280;28372;56.832;60.658;2023-03-18T08:49:45;98346.34;;;10.16;35.16
42727;BME280;28372;56.832;60.658;2023-03-18T08:52:16;98349.53;;;10.21;34.68
42727;BME280;28372;56.832;60.658;2023-03-18T08:54:43;98353.78;;;10.22;34.38
42727;BME280;28372;56.832;60.658;2023-03-18T08:57:11;98357.34;;;10.26;34.38
42727;BME280;28372;56.832;60.658;2023-03-18T08:59:39;98364.81;;;10.33;34.55
42727;BME280;28372;56.832;60.658;2023-03-18T09:02:09;98376.13;;;10.35;33.32
42727;BME280;28372;56.832;60.658;2023-03-18T09:04:38;98373.81;;;10.37;33.28
42727;BME280;28372;56.832;60.658;2023-03-18T09:07:06;98373.06;;;10.37;32.54
42727;BME280;28372;56.832;60.658;2023-03-18T09:09:33;98382.34;;;10.39;32.81
42727;BME280;28372;56.832;60.658;2023-03-18T09:12:09;98382.06;;;10.44;32.59
42727;BME280;28372;56.832;60.658;2023-03-18T09:14:38;98387.22;;;10.34;32.36
42727;BME280;28372;56.832;60.658;2023-03-18T09:17:06;98386.44;;;10.33;31.85
42727;BME280;28372;56.832;60.658;2023-03-18T09:19:34;98388.38;;;10.33;32.54
42727;BME280;28372;56.832;60.658;2023-03-18T09:22:02;98390.59;;;10.27;32.25
42727;BME280;28372;56.832;60.658;2023-03-18T09:24:30;98382.38;;;10.23;31.96
42727;BME280;28372;56.832;60.658;2023-03-18T09:26:57;98390.34;;;10.16;31.92
42727;BME280;28372;56.832;60.658;2023-03-18T09:29:25;98388.41;;;10.17;32.33
42727;BME280;28372;56.832;60.658;2023-03-18T09:31:53;98405.19;;;10.06;31.95
42727;BME280;28372;56.832;60.658;2023-03-18T09:34:21;98412.44;;;10.02;32.43
42727;BME280;28372;56.832;60.658;2023-03-18T09:36:49;98423.50;;;9.97;31.94
42727;BME280;28372;56.832;60.658;2023-03-18T09:39:19;98419.69;;;9.98;32.42
42727;BME280;28372;56.832;60.658;2023-03-18T09:44:33;98434.53;;;9.72;32.49
42727;BME280;28372;56.832;60.658;2023-03-18T09:47:22;98438.72;;;9.70;33.23
42727;BME280;28372;56.832;60.658;2023-03-18T09:54:53;98455.19;;;9.65;33.22
42727;BME280;28372;56.832;60.658;2023-03-18T09:57:25;98457.72;;;9.57;33.52
42727;BME280;28372;56.832;60.658;2023-03-18T09:59:59;98459.53;;;9.53;33.98
42727;BME280;28372;56.832;60.658;2023-03-18T10:02:41;98463.81;;;9.54;34.30
42727;BME280;28372;56.832;60.658;2023-03-18T10:05:13;98463.81;;;9.54;33.94
42727;BME280;28372;56.832;60.658;2023-03-18T10:07:42;98468.16;;;9.59;34.17
42727;BME280;28372;56.832;60.658;2023-03-18T10:10:16;98475.25;;;9.64;33.71
42727;BME280;28372;56.832;60.658;2023-03-18T10:12:49;98477.31;;;9.70;33.97
42727;BME280;28372;56.832;60.658;2023-03-18T10:23:50;98503.38;;;9.78;34.06
42727;BME280;28372;56.832;60.658;2023-03-18T10:34:22;98526.97;;;9.50;31.99
42727;BME280;28372;56.832;60.658;2023-03-18T10:39:39;98522.56;;;9.29;31.75
42727;BME280;28372;56.832;60.658;2023-03-18T10:42:25;98530.28;;;9.15;31.74
42727;BME280;28372;56.832;60.658;2023-03-18T10:44:53;98530.13;;;9.23;31.36
42727;BME280;28372;56.832;60.658;2023-03-18T10:47:28;98532.03;;;9.23;31.37
42727;BME280;28372;56.832;60.658;2023-03-18T10:50:01;98533.31;;;9.13;31.89
42727;BME280;28372;56.832;60.658;2023-03-18T10:52:41;98548.03;;;9.16;31.84
42727;BME280;28372;56.832;60.658;2023-03-18T10:55:17;98551.22;;;9.05;31.49
42727;BME280;28372;56.832;60.658;2023-03-18T10:57:47;98546.16;;;9.04;31.81
42727;BME280;28372;56.832;60.658;2023-03-18T11:00:28;98552.13;;;8.97;30.96
42727;BME280;28372;56.832;60.658;2023-03-18T11:02:56;98558.44;;;8.89;31.01
42727;BME280;28372;56.832;60.658;2023-03-18T11:08:02;98568.34;;;8.85;31.22
42727;BME280;28372;56.832;60.658;2023-03-18T11:10:33;98570.16;;;8.81;31.21
42727;BME280;28372;56.832;60.658;2023-03-18T11:13:02;98568.13;;;8.78;31.22
42727;BME280;28372;56.832;60.658;2023-03-18T11:15:40;98582.31;;;8.74;30.85
42727;BME280;28372;56.832;60.658;2023-03-18T11:18:11;98578.94;;;8.78;31.21
42727;BME280;28372;56.832;60.658;2023-03-18T11:20:45;98586.34;;;8.81;31.64
42727;BME280;28372;56.832;60.658;2023-03-18T11:23:16;98589.69;;;8.90;31.94
42727;BME280;28372;56.832;60.658;2023-03-18T11:25:45;98592.38;;;9.02;31.83
42727;BME280;28372;56.832;60.658;2023-03-18T11:28:18;98600.91;;;9.04;32.13
42727;BME280;28372;56.832;60.658;2023-03-18T11:30:51;98621.16;;;9.11;32.96
42727;BME280;28372;56.832;60.658;2023-03-18T11:33:24;98624.97;;;9.09;32.70
42727;BME280;28372;56.832;60.658;2023-03-18T11:35:52;98620.13;;;9.15;32.84
42727;BME280;28372;56.832;60.658;2023-03-18T11:38:30;98623.94;;;9.14;32.84
42727;BME280;28372;56.832;60.658;2023-03-18T11:41:14;98636.72;;;9.17;32.28
42727;BME280;28372;56.832;60.658;2023-03-18T11:43:53;98632.28;;;9.09;31.91
42727;BME280;28372;56.832;60.658;2023-03-18T11:46:23;98633.28;;;9.04;31.78
42727;BME280;28372;56.832;60.658;2023-03-18T11:48:53;98631.50;;;8.96;31.36
42727;BME280;28372;56.832;60.658;2023-03-18T11:51:33;98638.25;;;8.90;31.55
42727;BME280;28372;56.832;60.658;2023-03-18T12:02:05;98665.47;;;8.72;31.06
42727;BME280;28372;56.832;60.658;2023-03-18T12:04:49;98663.22;;;8.74;31.11
42727;BME280;28372;56.832;60.658;2023-03-18T12:10:18;98676.91;;;8.69;30.13
42727;BME280;28372;56.832;60.658;2023-03-18T12:15:42;98687.47;;;8.62;30.26
42727;BME280;28372;56.832;60.658;2023-03-18T12:26:46;98701.56;;;8.34;29.19
42727;BME280;28372;56.832;60.658;2023-03-18T12:47:32;98731.22;;;7.80;27.24
42727;BME280;28372;56.832;60.658;2023-03-18T12:50:46;98727.94;;;7.74;27.50
42727;BME280;28372;56.832;60.658;2023-03-18T12:52:54;98733.34;;;7.74;27.98
42727;BME280;28372;56.832;60.658;2023-03-18T12:58:17;98742.34;;;7.57;27.35
42727;BME280;28372;56.832;60.658;2023-03-18T13:03:30;98760.41;;;7.57;28.34
42727;BME280;28372;56.832;60.658;2023-03-18T13:14:00;98763.69;;;7.02;28.68
42727;BME280;28372;56.832;60.658;2023-03-18T13:16:30;98786.97;;;7.07;28.21
42727;BME280;28372;56.832;60.658;2023-03-18T13:18:58;98783.00;;;7.05;28.45
42727;BME280;28372;56.832;60.658;2023-03-18T13:21:28;98783.69;;;6.93;26.75
42727;BME280;28372;56.832;60.658;2023-03-18T13:29:30;98805.09;;;6.80;25.90
42727;BME280;28372;56.832;60.658;2023-03-18T13:32:03;98811.00;;;6.65;25.25
42727;BME280;28372;56.832;60.658;2023-03-18T13:34:37;98808.78;;;6.58;24.99
42727;BME280;28372;56.832;60.658;2023-03-18T13:37:28;98814.47;;;6.57;25.67
42727;BME280;28372;56.832;60.658;2023-03-18T13:42:34;98833.59;;;6.46;25.58
42727;BME280;28372;56.832;60.658;2023-03-18T13:47:35;98849.91;;;6.41;25.59
42727;BME280;28372;56.832;60.658;2023-03-18T13:50:05;98856.41;;;6.31;25.41
42727;BME280;28372;56.832;60.658;2023-03-18T13:52:40;98866.19;;;6.27;25.68
42727;BME280;28372;56.832;60.658;2023-03-18T13:57:47;98881.50;;;6.18;26.97
42727;BME280;28372;56.832;60.658;2023-03-18T14:00:30;98884.66;;;6.03;28.38
42727;BME280;28372;56.832;60.658;2023-03-18T14:03:18;98894.75;;;6.06;28.23
42727;BME280;28372;56.832;60.658;2023-03-18T14:05:50;98907.63;;;5.86;27.42
42727;BME280;28372;56.832;60.658;2023-03-18T14:08:32;98911.44;;;5.85;27.32
42727;BME280;28372;56.832;60.658;2023-03-18T14:18:59;98931.25;;;5.58;25.70
42727;BME280;28372;56.832;60.658;2023-03-18T14:21:28;98945.88;;;5.43;25.86
42727;BME280;28372;56.832;60.658;2023-03-18T14:24:01;98955.78;;;5.42;26.21
42727;BME280;28372;56.832;60.658;2023-03-18T14:26:33;98958.44;;;5.34;26.37
42727;BME280;28372;56.832;60.658;2023-03-18T14:29:14;98973.59;;;5.07;26.35
42727;BME280;28372;56.832;60.658;2023-03-18T14:37:03;98980.09;;;4.69;27.82
42727;BME280;28372;56.832;60.658;2023-03-18T14:39:38;98980.72;;;4.52;26.54
42727;BME280;28372;56.832;60.658;2023-03-18T14:45:04;99000.78;;;4.55;26.90
42727;BME280;28372;56.832;60.658;2023-03-18T14:47:47;98998.16;;;4.13;27.31
42727;BME280;28372;56.832;60.658;2023-03-18T14:50:16;99012.50;;;4.31;26.73
42727;BME280;28372;56.832;60.658;2023-03-18T14:52:48;99016.47;;;4.34;27.31
42727;BME280;28372;56.832;60.658;2023-03-18T14:55:19;99029.88;;;4.34;26.55
42727;BME280;28372;56.832;60.658;2023-03-18T14:57:48;99030.38;;;4.08;26.95
42727;BME280;28372;56.832;60.658;2023-03-18T15:00:18;99040.59;;;4.20;26.65
42727;BME280;28372;56.832;60.658;2023-03-18T15:02:48;99040.97;;;4.13;26.81
42727;BME280;28372;56.832;60.658;2023-03-18T15:05:18;99048.72;;;4.15;26.81
42727;BME280;28372;56.832;60.658;2023-03-18T15:07:49;99062.09;;;4.15;27.08
42727;BME280;28372;56.832;60.658;2023-03-18T15:10:21;99061.69;;;3.93;27.07
42727;BME280;28372;56.832;60.658;2023-03-18T15:13:04;99063.59;;;4.07;26.93
42727;BME280;28372;56.832;60.658;2023-03-18T15:15:33;99062.97;;;3.82;26.66
42727;BME280;28372;56.832;60.658;2023-03-18T15:18:04;99071.22;;;4.00;27.40